Airfield :
LOGIN :

Register | Disclaimer

   EN    FR    IT 

 










Legend :    VFR   Marginal VFR   IFR   Intensive IFR   Very Intensive IFR
Visi :
Ceiling :
>= 8 km
>= 3000ft
5 to 8 km
1000 to 3000 ft
1500m to 5 km
500 to 1000 ft
800 to 1500m
200 to 500 ft
< 800m
< 200 ft
Symbols :   Thunderstorms  Fog  Heavy snow  Heavy precipitations  Wind > 20 kt
SIGMETs :     Misc.  Thunderstorms  Icing  Turbulence  Mountain Waves  Volcanic Ashes






- Airport Elevation : 424 ft
- IATA code : QGY


LHPR - Györ Per

CURRENT METAR :
  • 091445Z AUTO 27007KT 240V300 CAVOK 33/13 Q1015 NOSIG

EXPIRED METARs :
  • 091415Z AUTO 29006KT 230V040 CAVOK 33/13 Q1015 NOSIG
  • 091345Z AUTO VRB07KT CAVOK 33/13 Q1016 NOSIG
  • 091315Z AUTO VRB04KT CAVOK 32/13 Q1016 NOSIG
  • 091245Z AUTO 24006KT 190V340 CAVOK 32/13 Q1016 NOSIG
  • 091215Z AUTO 23006KT 150V320 CAVOK 32/15 Q1016 NOSIG

TAF TAF LHPR
Valid from the 09 at 15:00 until the 10 at 00:00 UTC


091415Z 0915/0924 VRB03KT CAVOK
TEMPO 0915/0919 FEW050CB SCT060



MET'MAP, your aeronautical weather chart ! - Copyright ORBIFLY December 2007 - Disclaimer

ORBIFLY MET'MAP TEAM :

Programming & Development : Alexandra Zaïnal
Concept & original design : Baudouin d'Aumeries
Assistance for programming : Marc-Olivier Méhu
Technical & hardware support : Manuel Goepfert

Contact : metmap@orbifly.com




SOURCES & CREDITS :

   NOAA